首页
METAR-TAF:

METAR-TAF

机场 :

下卡姆斯克, 俄罗斯

纬度: 55-33-48N, 经度: 052-05-42E, 海拔: 196米

当前天气观测

该预报发布于45分钟前的10:30 UTC
风速12节,风向西北
温度 16°C
湿度 72%
气压 1008 hPa
能见度10公里或以上
散云层高于3600英尺, 积雨云.

METAR: UWKE 161030Z 31006MPS 9999 SCT036CB 16/11 Q1008 R21/210355 NOSIG RMK QFE739/0986

时间: 14:15 (11:15 UTC)

预报

该预报发布于3小时和30分钟前的07:45 UTC
预报有效从16日的 09点(UTC)到 17日的 09点(UTC)
风速6节,风向西北,有时为17节阵风
能见度10公里或以上
多云层高于2000英尺
短暂存在
从 16日的 09点(UTC)到 16日的 15点(UTC)
风速12节,风向西北,有时为23节阵风
能見度: 3100
多云层高于1100英尺
散云层高于1500英尺, 积雨云.
小阵雨
成为
从 16日的 16点(UTC)到 16日的 18点(UTC)
风速6节,风向,有时为17节阵风
成为
从 17日的 01点(UTC)到 17日的 03点(UTC)
风速12节,风向西转西南,有时为23节阵风

TAF: UWKE 160745Z 1609/1709 32003G09MPS 9999 BKN020 TEMPO 1609/1615 31006G12MPS 3100 -SHRA BKN011 SCT015CB BECMG 1616/1618 35003G09MPS BECMG 1701/1703 24006G12MPS

超过4000个机场的气象观测和天气预报(METAR&TAF报告)。

可查询的气象台以黄色和红色小点在地图上表示。

将鼠标移到小点上方,可查看气象台名称。

然后点击查看天气观测和预报。

如需切换地图:点击带黑十字的绿色按钮放大地图;点击带横线的绿色按钮缩小地图;或者点击绿色箭头查看邻近地区的地图。


METAR-TAF: